Terminal Aerodrome Forecast
Issued by NWS

Home | Current Version | Previous Version | Text Only | Print | Product List | Glossary On
Versions: 1 2 3 4 5 6 7 8 9 10 11 12 13 14 15
000
FTUS45 KRIW 280500
TAFCPR
TAF
KCPR 280534Z 2806/0106 03006KT P6SM VCSH SCT030 OVC050
     FM280900 03006KT P6SM VCSH OVC024
     FM281200 06006KT P6SM VCSH OVC015
     FM282300 03007KT P6SM VCSH SCT016 OVC026
     FM010500 02006KT P6SM SCT016 OVC026=

USA.gov is the U.S. government's official web portal to all federal, state and local government web resources and services.